Moorhead, Iowa
Current Conditions -  °F | °C
As of 1:54 PM on Wednesday 26 Nov 2014 (Local Time) from KTQE Reporting Station
Overcast Overcast  
Wind Chill: 16°   Ceiling: 2000
Heat Index: 30°   Visibility: 10mi
Dew Point: 22°   Wind: 25mph
Humidity: 72%   Direction: 340°NNW
Pressure: 30.19"   Gusts: 31mph
Location:  41.92°N, 95.85°W
Report Text: KTQE 261954Z AUTO 34022G27KT 10SM OVC020 M01/M06 A3019 RMK AO2 PK WND 36032/1916 SLP231 T10111056
Loading
Personal Weather Stations






























Interactive Weather Map New forecast layout! Learn more

10-Day Weather Forecast

Advertisements
Track Severe Weather on mobile